Time;durP1;ratioP1;P1;durP2;ratioP2;P2;SDS_P1;SDS_P2;PMS_P1;PMS_P2;Temp;Humidity;BMP_temperature;BMP_pressure;BME280_temperature;BME280_humidity;BME280_pressure;Samples;Min_cycle;Max_cycle;Signal;HPM_P1;HPM_P2
2022/07/18 00:00:06;;;;;;;8.63;4.18;;;;;;;24.60;61.76;101257.84;5053322;28;20082;-75
2022/07/18 00:02:32;;;;;;;11.15;4.13;;;;;;;24.42;60.78;101265.75;5054621;28;20462;-75
2022/07/18 00:04:58;;;;;;;11.63;4.00;;;;;;;24.36;59.31;101272.06;5054624;28;20104;-75
2022/07/18 00:07:24;;;;;;;11.18;3.30;;;;;;;24.08;56.87;101254.63;5054492;28;20482;-75
2022/07/18 00:09:49;;;;;;;10.43;3.35;;;;;;;24.05;55.32;101263.28;5054583;28;20029;-75
2022/07/18 00:12:15;;;;;;;15.20;3.10;;;;;;;23.95;54.68;101252.59;5054469;28;20032;-75
2022/07/18 00:14:41;;;;;;;11.95;3.00;;;;;;;23.93;53.07;101256.59;5054459;28;20055;-75
2022/07/18 00:17:07;;;;;;;7.22;2.50;;;;;;;23.89;52.12;101244.28;5054281;28;20056;-74
2022/07/18 00:19:33;;;;;;;13.95;3.00;;;;;;;23.91;52.04;101247.72;5054211;28;20035;-75
2022/07/18 00:22:00;;;;;;;14.02;2.83;;;;;;;23.80;51.40;101251.81;5054260;28;20077;-75
2022/07/18 00:24:26;;;;;;;10.57;2.75;;;;;;;23.73;51.47;101268.25;5052859;28;20538;-75
2022/07/18 00:26:51;;;;;;;11.82;2.72;;;;;;;23.69;51.34;101268.84;5054040;28;20100;-75
2022/07/18 00:29:17;;;;;;;12.18;2.55;;;;;;;23.56;50.61;101271.44;5053933;28;20025;-75
2022/07/18 00:31:43;;;;;;;10.85;2.60;;;;;;;23.58;50.48;101281.16;5053997;28;20033;-75
2022/07/18 00:34:08;;;;;;;19.20;2.90;;;;;;;23.52;49.81;101262.72;5054165;28;20509;-75
2022/07/18 00:36:34;;;;;;;6.50;2.78;;;;;;;23.39;49.24;101265.34;5054187;28;20032;-75
2022/07/18 00:39:00;;;;;;;16.60;2.17;;;;;;;23.36;48.86;101273.91;5054144;28;20828;-75
2022/07/18 00:41:25;;;;;;;6.00;2.10;;;;;;;23.34;48.69;101256.75;5053996;28;20114;-75
2022/07/18 00:43:51;;;;;;;11.73;2.50;;;;;;;23.39;47.76;101272.69;5054065;28;20162;-75
2022/07/18 00:46:24;;;;;;;15.27;3.15;;;;;;;23.18;47.93;101266.06;5054048;28;20368;-75
2022/07/18 00:48:50;;;;;;;14.45;2.67;;;;;;;23.18;47.57;101257.84;5054132;28;20024;-75
2022/07/18 00:51:16;;;;;;;9.20;2.10;;;;;;;23.20;47.55;101280.47;5053840;28;20050;-75
2022/07/18 00:53:42;;;;;;;9.93;2.05;;;;;;;23.17;47.09;101271.75;5053637;28;20539;-75
2022/07/18 00:56:09;;;;;;;9.68;2.38;;;;;;;23.07;47.22;101272.06;5053737;28;20028;-75
2022/07/18 00:58:34;;;;;;;8.27;2.15;;;;;;;23.16;46.98;101281.03;5052340;28;20487;-75
2022/07/18 01:03:43;;;;;;;15.40;2.15;;;;;;;23.12;46.55;101279.69;5053545;28;20501;-75
2022/07/18 01:06:09;;;;;;;3.88;1.40;;;;;;;23.06;46.59;101275.81;5053718;28;20024;-75
2022/07/18 01:08:35;;;;;;;10.32;1.90;;;;;;;23.13;46.44;101286.91;5053897;28;20028;-75
2022/07/18 01:11:01;;;;;;;11.45;1.88;;;;;;;23.08;46.12;101283.88;5062191;28;20048;-75
2022/07/18 01:13:27;;;;;;;8.75;1.83;;;;;;;23.07;46.07;101296.75;5069568;28;20028;-75
2022/07/18 01:15:52;;;;;;;10.00;1.80;;;;;;;23.05;46.02;101296.09;5053607;28;20491;-75
2022/07/18 01:18:18;;;;;;;10.07;1.88;;;;;;;23.10;45.84;101282.66;5053252;28;20090;-75
2022/07/18 01:20:43;;;;;;;7.82;1.30;;;;;;;23.04;45.55;101301.75;5053273;28;20063;-75
2022/07/18 01:23:09;;;;;;;10.93;1.42;;;;;;;22.98;45.83;101299.78;5053087;28;20028;-75
2022/07/18 01:25:34;;;;;;;19.55;2.65;;;;;;;22.95;45.82;101311.13;5053187;28;20025;-75
2022/07/18 01:28:00;;;;;;;11.88;1.67;;;;;;;22.84;45.99;101281.44;5053107;28;20021;-75
2022/07/18 01:30:26;;;;;;;7.82;1.67;;;;;;;22.97;45.49;101300.81;5053150;28;20147;-75
2022/07/18 01:32:59;;;;;;;9.63;1.80;;;;;;;23.01;45.57;101291.16;5053145;28;20021;-76
2022/07/18 01:35:26;;;;;;;4.93;1.52;;;;;;;23.06;45.20;101303.25;5054433;28;20032;-76
2022/07/18 01:37:55;;;;;;;10.02;1.50;;;;;;;22.96;45.31;101304.59;5052614;28;20090;-76
2022/07/18 01:40:21;;;;;;;14.15;2.00;;;;;;;22.97;45.51;101314.53;5052757;28;20029;-74
2022/07/18 01:42:46;;;;;;;3.88;1.55;;;;;;;22.99;45.46;101315.22;5052370;28;20106;-75
2022/07/18 01:45:12;;;;;;;8.98;1.80;;;;;;;22.94;45.64;101325.88;5071330;28;20445;-75
2022/07/18 01:47:38;;;;;;;26.30;2.45;;;;;;;22.98;45.53;101316.22;5072593;28;20074;-76
2022/07/18 01:50:19;;;;;;;8.95;2.05;;;;;;;22.90;45.32;101325.41;5072964;28;20377;-75
2022/07/18 01:53:28;;;;;;;8.05;1.42;;;;;;;22.98;45.20;101329.94;5071125;28;20494;-75
2022/07/18 01:56:42;;;;;;;17.95;2.15;;;;;;;23.01;44.92;101324.94;5057243;28;20044;-75
2022/07/18 01:59:12;;;;;;;9.55;2.95;;;;;;;22.95;45.32;101327.59;5072370;28;20036;-76
2022/07/18 06:52:06;;;;;;;4.80;1.40;;;;;;;24.28;44.41;101453.66;5133997;23;20065;-75
2022/07/18 06:54:33;;;;;;;8.55;1.77;;;;;;;24.35;43.97;101462.84;4977874;28;20126;-75
2022/07/18 06:56:59;;;;;;;2.45;1.02;;;;;;;24.27;43.92;101436.31;4954366;28;20496;-75
2022/07/18 06:59:25;;;;;;;7.38;1.90;;;;;;;24.34;43.93;101450.16;4954315;28;20511;-76
2022/07/18 07:01:51;;;;;;;12.38;1.85;;;;;;;24.36;43.94;101454.41;4971835;28;20077;-73
2022/07/18 07:15:48;;;;;;;18.10;2.67;;;;;;;25.03;42.26;101431.16;5119985;27;20391;-82
2022/07/18 07:18:13;;;;;;;9.75;1.95;;;;;;;24.84;42.57;101411.53;5112063;28;20407;-83
2022/07/18 07:20:39;;;;;;;6.50;1.23;;;;;;;24.84;42.94;101428.03;5112041;28;20053;-83
2022/07/18 07:23:07;;;;;;;7.95;1.50;;;;;;;24.81;43.30;101422.94;5119557;28;20090;-78
2022/07/18 07:25:33;;;;;;;17.40;1.70;;;;;;;24.90;42.77;101443.75;5121028;28;20028;-76
2022/07/18 07:27:58;;;;;;;3.95;1.10;;;;;;;24.81;43.02;101438.59;5090211;28;20081;-77
2022/07/18 07:30:24;;;;;;;4.45;1.20;;;;;;;25.00;42.30;101442.56;5090138;28;20032;-77
2022/07/18 07:32:51;;;;;;;5.50;1.45;;;;;;;25.10;41.97;101434.81;5090349;28;20028;-79
2022/07/18 07:35:17;;;;;;;33.67;2.03;;;;;;;25.10;41.78;101454.09;5090115;28;20044;-76
2022/07/18 07:37:47;;;;;;;12.05;1.42;;;;;;;25.11;41.58;101439.25;5090233;28;20028;-79
2022/07/18 07:40:14;;;;;;;13.85;1.73;;;;;;;25.18;41.38;101464.94;5089802;28;20027;-78
2022/07/18 07:42:40;;;;;;;9.90;1.00;;;;;;;25.27;41.36;101461.84;5086988;28;20040;-78
2022/07/18 07:45:06;;;;;;;38.15;3.65;;;;;;;25.44;40.23;101478.94;5088282;28;20027;-78
2022/07/18 07:47:32;;;;;;;2.45;1.10;;;;;;;25.44;39.83;101467.91;5089264;28;20028;-78
2022/07/18 07:49:58;;;;;;;14.35;1.50;;;;;;;25.49;40.13;101456.31;5088752;28;20039;-78
2022/07/18 07:52:24;;;;;;;3.22;2.55;;;;;;;25.76;39.78;101472.78;5088640;28;20051;-80
2022/07/18 07:54:50;;;;;;;15.63;2.97;;;;;;;25.87;39.58;101474.97;5088686;28;20089;-78
2022/07/18 07:57:16;;;;;;;27.42;2.28;;;;;;;25.91;39.44;101470.75;5088454;28;20024;-78
2022/07/18 07:59:41;;;;;;;6.65;1.40;;;;;;;25.87;39.55;101474.16;5089631;28;20027;-77
2022/07/18 08:02:07;;;;;;;6.68;1.10;;;;;;;25.83;39.71;101459.91;5090413;28;20103;-82
2022/07/18 08:04:32;;;;;;;4.35;1.33;;;;;;;25.85;39.93;101474.34;5090114;28;20111;-79
2022/07/18 08:06:58;;;;;;;25.55;2.35;;;;;;;25.81;40.19;101472.16;5096835;28;20050;-80
2022/07/18 08:09:23;;;;;;;4.95;1.67;;;;;;;25.81;40.29;101464.75;5110346;28;20048;-80
2022/07/18 08:11:48;;;;;;;10.13;1.77;;;;;;;25.82;40.15;101469.22;5092180;28;20508;-78
2022/07/18 08:14:14;;;;;;;7.90;1.60;;;;;;;25.96;39.50;101473.75;5091802;28;20056;-78
2022/07/18 08:16:40;;;;;;;4.05;1.50;;;;;;;26.17;39.88;101474.72;5097398;28;20032;-81
2022/07/18 08:19:06;;;;;;;8.18;1.73;;;;;;;26.18;38.16;101476.41;5096617;28;20089;-79
2022/07/18 08:21:31;;;;;;;15.82;2.33;;;;;;;26.04;38.09;101480.16;5096126;28;20023;-78
2022/07/18 08:23:56;;;;;;;6.88;1.25;;;;;;;26.10;38.37;101487.59;5078248;28;20111;-79
2022/07/18 08:26:22;;;;;;;8.43;1.98;;;;;;;26.02;37.41;101493.28;5096026;28;20028;-79
2022/07/18 08:28:47;;;;;;;2.53;0.90;;;;;;;25.86;38.46;101497.25;5096128;28;20107;-80
2022/07/18 08:31:14;;;;;;;13.40;1.25;;;;;;;25.96;38.55;101490.28;5095925;28;20519;-78
2022/07/18 08:33:39;;;;;;;3.88;0.90;;;;;;;26.03;38.24;101483.94;5095647;28;20024;-81
2022/07/18 08:36:07;;;;;;;8.25;1.35;;;;;;;25.99;38.47;101489.03;5097010;28;20039;-81
2022/07/18 08:38:32;;;;;;;18.40;1.67;;;;;;;25.95;38.70;101485.84;5096764;28;20049;-84
2022/07/18 08:40:58;;;;;;;8.65;1.88;;;;;;;25.88;39.18;101475.81;5097043;28;20016;-80
2022/07/18 08:43:25;;;;;;;5.00;1.25;;;;;;;26.17;39.09;101491.28;5079153;28;20022;-83
2022/07/18 08:45:56;;;;;;;3.22;1.35;;;;;;;26.23;38.97;101490.44;5095069;28;20055;-77
2022/07/18 08:48:22;;;;;;;13.27;2.30;;;;;;;26.37;38.92;101489.44;5094700;28;20474;-77
2022/07/18 08:50:49;;;;;;;40.78;3.63;;;;;;;26.47;37.87;101487.13;5092435;28;20027;-77
2022/07/18 08:53:16;;;;;;;11.05;1.85;;;;;;;26.46;37.99;101485.44;5089088;28;20031;-76
2022/07/18 08:55:43;;;;;;;28.25;2.78;;;;;;;26.34;38.68;101503.63;5094130;28;20061;-77
2022/07/18 08:58:10;;;;;;;44.78;2.97;;;;;;;26.36;39.18;101490.50;5093911;28;20027;-76
2022/07/18 09:00:35;;;;;;;19.73;2.83;;;;;;;26.38;39.19;101471.84;5094192;28;20031;-76
2022/07/18 09:03:02;;;;;;;21.30;2.33;;;;;;;26.35;38.65;101488.78;5093885;28;20028;-77
2022/07/18 09:05:29;;;;;;;10.05;1.52;;;;;;;26.43;39.19;101485.84;5094239;28;20097;-77
2022/07/18 09:08:19;;;;;;;10.32;1.85;;;;;;;26.56;38.73;101483.13;5079061;28;20027;-77
2022/07/18 09:10:55;;;;;;;3.60;1.30;;;;;;;26.66;38.43;101485.50;5074602;28;20025;-77
2022/07/18 09:13:39;;;;;;;34.15;3.25;;;;;;;26.83;38.51;101471.09;5078477;28;20030;-81
2022/07/18 09:16:11;;;;;;;4.38;1.23;;;;;;;26.99;37.72;101480.91;5078716;28;20123;-86
2022/07/18 09:18:48;;;;;;;8.93;1.73;;;;;;;27.14;38.29;101484.28;5095714;28;20032;-82
2022/07/18 09:21:14;;;;;;;13.82;2.13;;;;;;;26.97;37.41;101483.84;5095833;28;20035;-85
2022/07/18 09:23:43;;;;;;;4.88;1.50;;;;;;;27.11;37.67;101492.16;5095387;28;20088;-81
2022/07/18 09:26:10;;;;;;;24.52;2.90;;;;;;;27.15;36.98;101496.19;5095310;28;20028;-82
2022/07/18 09:28:50;;;;;;;6.00;1.38;;;;;;;27.17;36.90;101496.81;5094961;28;20020;-82
2022/07/18 09:31:18;;;;;;;7.60;2.25;;;;;;;27.19;36.82;101492.78;5076993;28;20043;-78
2022/07/18 09:33:52;;;;;;;11.32;2.00;;;;;;;27.15;36.60;101494.28;5095301;28;20044;-81
2022/07/18 09:36:17;;;;;;;7.00;1.83;;;;;;;27.05;36.57;101480.03;5095150;28;20028;-81
2022/07/18 09:38:43;;;;;;;9.30;1.33;;;;;;;27.18;36.49;101490.25;5095155;28;20388;-81
2022/07/18 09:41:11;;;;;;;16.27;3.58;;;;;;;27.28;36.53;101485.97;5095265;28;20032;-81
2022/07/18 09:43:37;;;;;;;3.15;1.00;;;;;;;27.28;36.07;101485.13;5095462;28;20058;-81
2022/07/18 09:46:04;;;;;;;3.28;1.42;;;;;;;27.39;36.41;101477.06;5077108;28;20048;-81
2022/07/18 09:48:30;;;;;;;5.63;1.67;;;;;;;27.72;35.24;101482.56;5095252;28;20039;-81
2022/07/18 09:50:58;;;;;;;4.60;2.20;;;;;;;27.90;35.80;101493.78;5095047;28;20028;-81
2022/07/18 09:53:38;;;;;;;9.95;1.50;;;;;;;28.03;36.39;101485.44;5094865;28;20062;-81
2022/07/18 09:56:06;;;;;;;8.55;1.55;;;;;;;28.12;36.29;101476.94;5094855;28;20598;-82
2022/07/18 09:58:35;;;;;;;14.10;1.80;;;;;;;28.03;35.64;101479.91;5094920;28;20030;-81
2022/07/18 10:01:02;;;;;;;13.77;1.65;;;;;;;28.02;35.10;101489.28;5095315;28;20028;-81
2022/07/18 10:03:29;;;;;;;18.65;2.35;;;;;;;27.96;35.66;101479.06;5094682;28;20020;-81
2022/07/18 10:05:56;;;;;;;10.32;1.65;;;;;;;27.98;35.20;101479.69;5094518;28;20027;-81
2022/07/18 10:08:24;;;;;;;10.10;2.00;;;;;;;28.19;35.10;101495.22;5095688;28;20045;-81
2022/07/18 10:10:51;;;;;;;17.23;1.50;;;;;;;28.39;33.90;101495.09;5094804;28;20024;-82
2022/07/18 10:13:18;;;;;;;4.72;1.60;;;;;;;28.49;34.27;101490.81;5094816;28;20023;-81
2022/07/18 10:15:46;;;;;;;15.10;2.92;;;;;;;28.75;34.60;101492.56;5094522;28;20048;-81
2022/07/18 10:18:13;;;;;;;10.15;1.60;;;;;;;28.78;34.37;101483.81;5094211;28;20430;-81
2022/07/18 10:20:44;;;;;;;4.38;1.13;;;;;;;28.47;34.86;101497.63;5095308;28;20077;-81
2022/07/18 10:23:24;;;;;;;11.25;1.40;;;;;;;28.70;35.24;101492.41;5095703;28;20028;-81
2022/07/18 10:26:19;;;;;;;5.80;1.70;;;;;;;28.89;35.52;101491.44;5095399;28;20031;-81
2022/07/18 10:28:57;;;;;;;10.90;1.90;;;;;;;28.98;35.22;101489.22;5077564;28;20026;-80
2022/07/18 10:31:27;;;;;;;15.70;2.78;;;;;;;28.93;35.55;101489.03;5077693;28;20024;-79
2022/07/18 10:34:08;;;;;;;7.07;1.30;;;;;;;28.68;35.15;101472.41;5094307;28;20027;-78
2022/07/18 10:36:39;;;;;;;7.68;1.33;;;;;;;28.67;35.71;101470.69;5094200;28;20031;-80
2022/07/18 10:39:20;;;;;;;6.13;1.83;;;;;;;28.58;35.51;101477.53;5094904;28;20099;-81
2022/07/18 10:41:45;;;;;;;41.53;1.83;;;;;;;28.58;35.45;101470.09;5095209;28;20121;-82
2022/07/18 10:44:23;;;;;;;3.88;1.40;;;;;;;28.48;35.27;101477.16;5094695;28;20019;-78
2022/07/18 10:47:12;;;;;;;17.90;2.47;;;;;;;28.40;35.00;101469.13;5077249;28;20036;-82
2022/07/18 10:49:47;;;;;;;4.95;1.45;;;;;;;28.39;35.38;101470.19;5094795;28;20026;-80
2022/07/18 10:52:25;;;;;;;4.10;1.55;;;;;;;28.42;36.12;101467.84;5094990;28;20020;-80
2022/07/18 10:55:03;;;;;;;6.78;1.45;;;;;;;28.47;35.98;101470.78;5094077;28;20396;-80
2022/07/18 10:57:29;;;;;;;1.98;1.05;;;;;;;28.42;35.85;101470.59;5075651;28;20024;-80
2022/07/18 11:00:10;;;;;;;8.38;1.85;;;;;;;28.55;35.55;101459.47;5093627;28;20020;-78
2022/07/18 11:02:40;;;;;;;13.50;1.92;;;;;;;28.69;35.29;101457.47;5095016;28;20043;-78
2022/07/18 11:05:31;;;;;;;12.68;2.38;;;;;;;28.68;35.44;101453.03;5094465;28;20034;-78
2022/07/18 11:08:02;;;;;;;14.68;1.45;;;;;;;28.73;35.62;101446.81;5062847;28;20097;-77
2022/07/18 11:11:01;;;;;;;1.80;0.87;;;;;;;28.78;34.79;101450.59;5094017;28;20042;-76
2022/07/18 11:13:31;;;;;;;3.15;0.90;;;;;;;28.80;34.61;101434.63;5094414;28;20035;-80
2022/07/18 11:16:08;;;;;;;21.52;2.45;;;;;;;28.82;35.21;101435.22;5094471;28;20154;-82
2022/07/18 11:18:53;;;;;;;25.08;2.50;;;;;;;28.91;34.69;101442.19;5093483;28;20024;-76
2022/07/18 11:21:31;;;;;;;6.57;1.08;;;;;;;28.85;33.64;101423.69;5091892;28;20023;-77
2022/07/18 11:24:08;;;;;;;6.03;1.50;;;;;;;28.77;34.10;101425.91;5092738;28;20020;-78
2022/07/18 11:26:42;;;;;;;11.75;1.65;;;;;;;28.76;34.50;101421.44;5092655;28;20036;-78
2022/07/18 11:29:12;;;;;;;13.80;2.05;;;;;;;28.55;34.71;101417.09;5093415;28;20409;-77
2022/07/18 11:31:56;;;;;;;3.55;1.42;;;;;;;28.41;35.38;101418.22;5092230;28;20161;-78
2022/07/18 11:34:23;;;;;;;4.75;1.00;;;;;;;28.44;35.24;101420.56;5092179;28;20050;-76
2022/07/18 11:36:49;;;;;;;16.65;2.17;;;;;;;28.32;35.00;101416.78;5092186;28;20568;-82
2022/07/18 11:39:28;;;;;;;5.15;1.60;;;;;;;28.44;35.06;101417.81;5093490;28;20027;-87
2022/07/18 11:41:54;;;;;;;10.27;1.85;;;;;;;28.23;34.85;101407.06;5093604;28;20031;-87
2022/07/18 11:44:26;;;;;;;1.92;1.13;;;;;;;28.23;35.32;101407.91;5093581;28;20016;-88
2022/07/18 11:47:13;;;;;;;5.78;1.38;;;;;;;28.07;35.86;101406.50;5093589;28;20111;-81
2022/07/18 11:49:39;;;;;;;14.38;1.63;;;;;;;27.93;36.64;101412.28;5093755;28;20126;-85
2022/07/18 11:52:05;;;;;;;16.45;1.75;;;;;;;27.83;37.49;101401.69;5078774;28;20480;-81
2022/07/18 11:54:32;;;;;;;22.88;2.17;;;;;;;27.84;37.81;101391.47;5097213;28;20047;-88
2022/07/18 11:56:59;;;;;;;3.70;1.20;;;;;;;27.97;37.58;101397.81;5098226;28;20105;-88
2022/07/18 11:59:35;;;;;;;3.65;1.15;;;;;;;28.18;37.15;101407.72;5097572;28;20038;-78
2022/07/18 12:02:01;;;;;;;8.10;2.25;;;;;;;28.24;36.92;101411.53;5096689;28;20031;-82
2022/07/18 12:04:27;;;;;;;6.68;1.48;;;;;;;28.29;37.24;101400.63;5096338;28;20024;-80
2022/07/18 12:07:16;;;;;;;2.80;1.38;;;;;;;28.43;37.23;101405.03;5096658;28;20825;-79
2022/07/18 12:09:42;;;;;;;8.25;1.17;;;;;;;28.54;35.95;101412.59;5096663;28;20020;-84
2022/07/18 12:12:10;;;;;;;9.93;2.22;;;;;;;28.58;36.15;101395.34;5097196;28;20028;-84
2022/07/18 12:14:37;;;;;;;5.03;1.83;;;;;;;28.60;35.35;101407.03;5078803;28;20116;-83
2022/07/18 12:17:03;;;;;;;7.10;1.20;;;;;;;28.61;35.52;101396.81;5096524;28;20447;-85
2022/07/18 12:19:39;;;;;;;10.52;1.20;;;;;;;28.53;35.34;101391.56;5096644;28;20031;-86
2022/07/18 12:22:08;;;;;;;7.07;1.27;;;;;;;28.53;36.19;101397.09;5096933;28;20515;-87
2022/07/18 12:24:55;;;;;;;12.27;1.77;;;;;;;28.57;37.51;101396.41;5096511;28;20020;-82
2022/07/18 12:27:29;;;;;;;5.45;1.10;;;;;;;28.68;37.65;101394.88;5097412;28;20028;-84
2022/07/18 12:30:04;;;;;;;2.88;1.35;;;;;;;28.68;36.71;101385.72;5097856;28;20553;-86
2022/07/18 12:32:39;;;;;;;16.73;2.17;;;;;;;28.75;36.84;101389.25;5099190;28;20039;-81
2022/07/18 12:35:07;;;;;;;8.00;1.95;;;;;;;28.78;37.65;101388.81;5096812;28;20024;-84
2022/07/18 12:37:32;;;;;;;7.00;1.65;;;;;;;28.87;37.66;101379.16;5096186;28;20035;-77
2022/07/18 12:40:08;;;;;;;7.95;1.67;;;;;;;28.80;37.56;101370.06;5096283;28;20483;-82
2022/07/18 12:42:37;;;;;;;4.47;1.52;;;;;;;28.94;37.50;101372.50;5096596;28;20107;-80
2022/07/18 12:45:04;;;;;;;3.72;1.35;;;;;;;29.06;36.39;101361.50;5096641;28;20020;-77
2022/07/18 12:47:30;;;;;;;5.30;1.60;;;;;;;29.01;36.23;101377.97;5096923;28;20036;-84
2022/07/18 12:49:56;;;;;;;2.75;1.13;;;;;;;29.08;36.69;101378.75;5096892;28;20458;-87
2022/07/18 12:52:22;;;;;;;2.45;1.35;;;;;;;29.09;37.03;101369.34;5098235;28;20051;-87
2022/07/18 12:54:48;;;;;;;13.25;2.17;;;;;;;28.92;37.86;101363.56;5098819;28;20024;-86
2022/07/18 12:57:13;;;;;;;5.90;1.17;;;;;;;28.80;38.25;101357.06;5096896;28;20076;-86
2022/07/18 12:59:39;;;;;;;16.73;1.60;;;;;;;28.66;37.64;101349.94;5096232;28;20528;-85
2022/07/18 13:02:05;;;;;;;6.78;1.60;;;;;;;28.41;37.47;101360.09;5096174;28;20082;-86
2022/07/18 13:04:30;;;;;;;2.50;0.90;;;;;;;28.27;38.12;101330.84;5077791;28;20397;-86
2022/07/18 13:06:56;;;;;;;11.45;1.55;;;;;;;28.44;38.37;101359.69;5096198;28;20028;-85
2022/07/18 13:09:22;;;;;;;11.00;1.65;;;;;;;28.49;37.88;101384.75;5096390;28;20028;-86
2022/07/18 13:11:48;;;;;;;10.00;2.38;;;;;;;28.18;38.54;101348.78;5096109;28;20035;-85
2022/07/18 13:14:16;;;;;;;2.05;1.30;;;;;;;28.13;38.82;101351.38;5084523;28;20137;-85
2022/07/18 13:16:45;;;;;;;14.25;1.77;;;;;;;28.22;38.55;101356.44;5075013;28;20128;-85
2022/07/18 13:19:12;;;;;;;20.17;1.67;;;;;;;28.27;38.71;101347.44;5075526;28;20667;-86
2022/07/18 13:21:38;;;;;;;3.92;1.70;;;;;;;28.56;38.80;101377.28;5075313;28;20478;-85
2022/07/18 13:24:04;;;;;;;5.18;1.95;;;;;;;28.50;38.73;101367.09;5074215;28;20024;-85
2022/07/18 13:26:29;;;;;;;6.30;1.20;;;;;;;28.25;38.95;101360.66;5076217;28;20141;-85
2022/07/18 13:28:55;;;;;;;21.88;3.05;;;;;;;28.37;38.62;101376.34;5075005;28;20074;-85
2022/07/18 13:31:20;;;;;;;5.97;1.75;;;;;;;28.19;38.90;101362.41;5075620;28;20024;-86
2022/07/18 13:33:50;;;;;;;5.60;1.52;;;;;;;28.27;38.97;101369.59;5075321;28;20016;-85
2022/07/18 13:36:16;;;;;;;4.72;1.52;;;;;;;28.32;38.64;101375.28;5075433;28;20107;-85
2022/07/18 13:38:42;;;;;;;7.68;1.73;;;;;;;27.88;39.15;101349.34;5075748;28;20025;-85
2022/07/18 13:41:09;;;;;;;10.88;1.30;;;;;;;27.90;39.18;101366.56;5073688;28;20051;-85
2022/07/18 13:43:39;;;;;;;6.38;1.55;;;;;;;27.95;39.50;101372.28;5075993;28;20016;-86
2022/07/18 13:46:05;;;;;;;7.43;2.00;;;;;;;27.94;39.46;101381.66;5075808;28;20016;-86
2022/07/18 13:48:30;;;;;;;13.82;1.50;;;;;;;27.81;39.49;101336.63;5075316;28;20024;-84
2022/07/18 13:50:56;;;;;;;9.85;1.00;;;;;;;28.03;39.97;101341.63;5074307;28;20402;-85
2022/07/18 13:53:22;;;;;;;8.43;1.58;;;;;;;27.86;40.55;101348.72;5074334;28;20036;-86
2022/07/18 13:55:47;;;;;;;5.28;1.30;;;;;;;27.83;39.91;101351.91;5075259;28;20110;-85
2022/07/18 13:58:13;;;;;;;3.42;1.45;;;;;;;27.92;39.23;101350.59;5075290;28;20044;-85
2022/07/18 14:00:38;;;;;;;3.58;1.20;;;;;;;28.26;38.50;101362.34;5074684;28;20553;-86
2022/07/18 14:03:05;;;;;;;7.13;1.30;;;;;;;28.37;38.14;101359.72;5075349;28;20028;-85
2022/07/18 14:05:31;;;;;;;3.25;1.35;;;;;;;28.35;38.64;101364.63;5075224;28;20107;-85
2022/07/18 14:07:56;;;;;;;2.03;1.13;;;;;;;28.57;37.75;101385.34;5075437;28;20048;-85
2022/07/18 14:10:22;;;;;;;10.43;1.90;;;;;;;28.57;37.28;101359.56;5075170;28;20024;-85
2022/07/18 14:12:47;;;;;;;4.95;1.40;;;;;;;28.49;37.29;101370.94;5075253;28;20028;-85
2022/07/18 14:15:13;;;;;;;2.78;1.60;;;;;;;28.54;37.50;101371.09;5074937;28;20045;-86
2022/07/18 14:17:39;;;;;;;8.70;1.95;;;;;;;28.46;37.63;101385.22;5075156;28;20032;-84
2022/07/18 14:20:07;;;;;;;4.68;1.42;;;;;;;28.32;37.80;101375.28;5074951;28;20437;-85
2022/07/18 14:22:33;;;;;;;8.30;1.58;;;;;;;28.48;38.05;101383.06;5075338;28;20070;-83
2022/07/18 14:24:59;;;;;;;18.83;1.65;;;;;;;28.24;38.45;101356.19;5074342;28;20144;-85
2022/07/18 14:27:24;;;;;;;9.00;2.03;;;;;;;28.15;38.43;101371.34;5072954;28;20084;-83
2022/07/18 14:29:50;;;;;;;3.92;1.40;;;;;;;27.94;38.17;101367.84;5074620;28;20398;-85
2022/07/18 14:32:16;;;;;;;3.15;1.67;;;;;;;27.76;38.90;101362.19;5074636;28;20032;-84
2022/07/18 14:34:41;;;;;;;6.22;1.23;;;;;;;27.79;38.61;101378.34;5074260;28;20043;-85
2022/07/18 14:37:07;;;;;;;9.02;1.98;;;;;;;27.61;38.90;101367.13;5073986;28;20021;-84
2022/07/18 14:39:32;;;;;;;9.80;1.70;;;;;;;27.43;40.02;101350.41;5074094;28;20020;-85
2022/07/18 14:41:58;;;;;;;11.50;2.05;;;;;;;27.27;39.76;101339.78;5074337;28;20035;-85
2022/07/18 14:44:24;;;;;;;4.65;1.40;;;;;;;27.10;39.82;101344.91;5073999;28;20020;-84
2022/07/18 14:46:50;;;;;;;7.32;2.60;;;;;;;27.09;39.90;101347.91;5073923;28;20063;-84
2022/07/18 14:49:15;;;;;;;4.35;1.38;;;;;;;27.07;40.19;101363.81;5073692;28;20028;-84
2022/07/18 14:51:41;;;;;;;5.63;1.55;;;;;;;27.03;40.57;101367.00;5074322;28;20470;-84
2022/07/18 14:54:08;;;;;;;3.42;1.27;;;;;;;26.80;40.06;101350.06;5074244;28;20035;-83
2022/07/18 14:56:33;;;;;;;2.78;1.20;;;;;;;26.67;40.30;101338.97;5074173;28;20082;-84
2022/07/18 14:58:58;;;;;;;2.35;1.23;;;;;;;26.68;40.69;101340.69;5074049;28;20404;-84
2022/07/18 15:01:24;;;;;;;8.32;1.52;;;;;;;26.66;40.79;101348.34;5073905;28;20546;-84
2022/07/18 15:03:49;;;;;;;1.83;1.42;;;;;;;26.68;41.13;101343.44;5073650;28;20052;-84
2022/07/18 15:06:15;;;;;;;12.27;1.65;;;;;;;26.51;41.55;101333.91;5074022;28;20507;-84
2022/07/18 15:08:40;;;;;;;5.95;1.88;;;;;;;26.52;42.59;101361.28;5072357;28;20032;-85
2022/07/18 15:11:06;;;;;;;4.82;1.65;;;;;;;26.38;43.15;101328.38;5073899;28;20023;-84
2022/07/18 15:13:31;;;;;;;3.95;1.30;;;;;;;26.57;43.30;101348.75;5073675;28;20039;-84
2022/07/18 15:15:57;;;;;;;1.80;1.35;;;;;;;26.46;43.31;101319.88;5073804;28;20088;-85
2022/07/18 15:18:22;;;;;;;8.27;1.38;;;;;;;26.47;43.29;101350.03;5074045;28;20024;-84
2022/07/18 15:20:48;;;;;;;8.95;1.95;;;;;;;26.38;42.96;101340.25;5073493;28;20020;-85
2022/07/18 15:23:13;;;;;;;7.13;1.50;;;;;;;26.29;43.51;101348.94;5073417;28;20477;-85
2022/07/18 15:25:39;;;;;;;4.95;1.40;;;;;;;26.11;43.53;101337.66;5074974;28;20020;-85
2022/07/18 15:28:04;;;;;;;7.47;1.80;;;;;;;26.17;44.03;101358.91;5077547;28;20025;-84
2022/07/18 15:30:30;;;;;;;13.45;1.70;;;;;;;25.89;44.32;101329.53;5078916;28;20378;-85
2022/07/18 15:32:55;;;;;;;4.85;1.40;;;;;;;25.93;44.35;101358.38;5078181;28;20028;-85
2022/07/18 15:35:21;;;;;;;23.67;2.15;;;;;;;25.86;45.33;101362.16;5077375;28;20488;-85
2022/07/18 15:37:46;;;;;;;3.25;1.45;;;;;;;25.78;45.48;101357.69;5077915;28;20035;-86
2022/07/18 15:40:11;;;;;;;5.90;2.25;;;;;;;25.57;45.68;101329.41;5077685;28;20331;-85
2022/07/18 15:42:37;;;;;;;3.45;1.70;;;;;;;25.66;45.70;101356.56;5078058;28;20038;-84
2022/07/18 15:45:03;;;;;;;24.10;1.98;;;;;;;25.74;45.85;101374.84;5079392;28;20013;-84
2022/07/18 15:47:28;;;;;;;3.85;1.50;;;;;;;25.78;45.64;101367.84;5078732;28;20117;-86
2022/07/18 15:49:54;;;;;;;6.57;2.08;;;;;;;25.59;45.68;101352.97;5078807;28;20021;-86
2022/07/18 15:52:19;;;;;;;6.22;1.60;;;;;;;25.42;45.70;101348.78;5079900;28;20037;-83
2022/07/18 15:54:45;;;;;;;4.50;1.50;;;;;;;25.57;45.88;101365.22;5078344;28;20021;-85
2022/07/18 15:57:10;;;;;;;11.25;2.40;;;;;;;25.40;45.97;101346.25;5078956;28;20069;-84
2022/07/18 15:59:36;;;;;;;6.43;1.70;;;;;;;25.42;45.51;101351.56;5079716;28;20104;-85
2022/07/18 16:02:02;;;;;;;3.17;1.85;;;;;;;25.34;45.51;101343.47;5079710;28;20120;-84
2022/07/18 16:04:28;;;;;;;7.00;2.58;;;;;;;25.45;46.20;101359.41;5080081;28;20037;-85
2022/07/18 16:06:53;;;;;;;7.32;1.73;;;;;;;25.24;46.62;101334.72;5078957;28;20032;-84
2022/07/18 16:09:20;;;;;;;5.20;2.13;;;;;;;25.10;46.58;101321.94;5077824;28;20048;-84
2022/07/18 16:11:46;;;;;;;5.70;1.63;;;;;;;25.36;46.64;101352.38;5078124;28;20016;-84
2022/07/18 16:14:13;;;;;;;6.00;3.35;;;;;;;25.21;46.61;101329.63;5079230;28;20437;-84
2022/07/18 16:16:39;;;;;;;7.10;1.70;;;;;;;25.27;47.09;101359.09;5079519;28;20037;-85
2022/07/18 16:19:06;;;;;;;50.10;25.00;;;;;;;25.28;47.25;101358.91;5079348;28;20024;-84
2022/07/18 16:21:34;;;;;;;16.58;2.83;;;;;;;25.19;47.17;101340.00;5078558;28;20074;-86
2022/07/18 16:24:00;;;;;;;15.98;9.40;;;;;;;25.27;47.18;101356.34;5077807;28;20024;-87
2022/07/18 16:26:26;;;;;;;26.60;4.43;;;;;;;25.07;46.75;101333.34;5079114;28;20104;-85
2022/07/18 16:28:52;;;;;;;11.52;3.13;;;;;;;25.14;46.96;101339.72;5079692;28;20503;-85
2022/07/18 16:31:18;;;;;;;10.60;1.80;;;;;;;24.96;46.70;101320.13;5079442;28;20505;-83